Terminal Aerodrome Forecast
Issued by NWS

Home | Current Version | Previous Version | Text Only | Print | Product List | Glossary On
Versions: 1 2 3 4 5 6 7 8 9 10 11 12 13 14 15 16 17 18 19 20 21 22 23 24 25 26 27 28 29 30
000
FTUS45 KGJT 211448 AAA
TAFEGE
TAF AMD
KEGE 211448Z 2115/2212 VRB05KT P6SM SKC
     FM211600 22011G22KT P6SM SKC
     FM211800 23015G32KT P6SM SKC
     FM220100 22010G22KT P6SM SKC
     FM220300 20006KT P6SM FEW140 FEW250
     FM220600 16006KT P6SM FEW130 FEW200
      AMD LTD TO CLD VIS AND WIND TIL 211300=

USA.gov is the U.S. government's official web portal to all federal, state and local government web resources and services.